sensor_id;sensor_type;location;lat;lon;timestamp;P1;durP1;ratioP1;P2;durP2;ratioP2
50681;SDS011;36779;52.168;20.878;2022-12-18T00:00:22;9.30;;;3.70;;
50681;SDS011;36779;52.168;20.878;2022-12-18T00:03:13;28.20;;;10.20;;
50681;SDS011;36779;52.168;20.878;2022-12-18T00:05:46;23.50;;;7.60;;
50681;SDS011;36779;52.168;20.878;2022-12-18T00:08:16;17.80;;;5.80;;
50681;SDS011;36779;52.168;20.878;2022-12-18T00:10:49;24.20;;;7.20;;
50681;SDS011;36779;52.168;20.878;2022-12-18T00:13:19;42.20;;;11.70;;
50681;SDS011;36779;52.168;20.878;2022-12-18T00:15:48;29.60;;;8.20;;
50681;SDS011;36779;52.168;20.878;2022-12-18T00:18:17;30.50;;;10.60;;
50681;SDS011;36779;52.168;20.878;2022-12-18T00:20:47;38.60;;;10.70;;
50681;SDS011;36779;52.168;20.878;2022-12-18T00:23:16;18.00;;;7.50;;
50681;SDS011;36779;52.168;20.878;2022-12-18T00:25:47;34.10;;;10.80;;
50681;SDS011;36779;52.168;20.878;2022-12-18T00:28:16;32.50;;;10.50;;
50681;SDS011;36779;52.168;20.878;2022-12-18T00:30:46;29.70;;;10.40;;
50681;SDS011;36779;52.168;20.878;2022-12-18T00:33:18;17.50;;;6.00;;
50681;SDS011;36779;52.168;20.878;2022-12-18T00:35:46;37.40;;;11.20;;
50681;SDS011;36779;52.168;20.878;2022-12-18T00:38:15;33.50;;;10.60;;
50681;SDS011;36779;52.168;20.878;2022-12-18T00:40:44;34.80;;;10.70;;
50681;SDS011;36779;52.168;20.878;2022-12-18T00:43:15;36.10;;;9.90;;
50681;SDS011;36779;52.168;20.878;2022-12-18T00:45:44;39.40;;;12.20;;
50681;SDS011;36779;52.168;20.878;2022-12-18T00:48:13;27.20;;;8.50;;
50681;SDS011;36779;52.168;20.878;2022-12-18T00:50:42;13.20;;;4.80;;
50681;SDS011;36779;52.168;20.878;2022-12-18T00:53:11;25.20;;;8.40;;
50681;SDS011;36779;52.168;20.878;2022-12-18T00:55:40;17.20;;;5.10;;
50681;SDS011;36779;52.168;20.878;2022-12-18T00:58:14;19.20;;;6.30;;
50681;SDS011;36779;52.168;20.878;2022-12-18T01:00:46;21.40;;;7.30;;
50681;SDS011;36779;52.168;20.878;2022-12-18T01:03:15;16.30;;;5.40;;
50681;SDS011;36779;52.168;20.878;2022-12-18T01:05:44;21.40;;;6.40;;
50681;SDS011;36779;52.168;20.878;2022-12-18T01:08:13;21.60;;;6.80;;
50681;SDS011;36779;52.168;20.878;2022-12-18T01:10:43;20.50;;;6.50;;
50681;SDS011;36779;52.168;20.878;2022-12-18T01:13:14;31.80;;;9.10;;
50681;SDS011;36779;52.168;20.878;2022-12-18T01:15:48;22.70;;;7.10;;
50681;SDS011;36779;52.168;20.878;2022-12-18T01:18:17;20.40;;;6.30;;
50681;SDS011;36779;52.168;20.878;2022-12-18T01:20:46;30.40;;;10.50;;
50681;SDS011;36779;52.168;20.878;2022-12-18T01:23:14;41.70;;;13.40;;
50681;SDS011;36779;52.168;20.878;2022-12-18T01:25:43;38.10;;;10.30;;
50681;SDS011;36779;52.168;20.878;2022-12-18T01:28:14;33.50;;;9.10;;
50681;SDS011;36779;52.168;20.878;2022-12-18T01:30:46;42.20;;;11.70;;
50681;SDS011;36779;52.168;20.878;2022-12-18T01:33:15;25.30;;;6.40;;
50681;SDS011;36779;52.168;20.878;2022-12-18T01:35:46;21.80;;;7.00;;
50681;SDS011;36779;52.168;20.878;2022-12-18T01:38:15;16.00;;;6.30;;
50681;SDS011;36779;52.168;20.878;2022-12-18T01:40:45;15.10;;;5.10;;
50681;SDS011;36779;52.168;20.878;2022-12-18T01:43:14;22.60;;;7.60;;
50681;SDS011;36779;52.168;20.878;2022-12-18T01:45:42;37.40;;;9.50;;
50681;SDS011;36779;52.168;20.878;2022-12-18T01:48:13;40.80;;;12.10;;
50681;SDS011;36779;52.168;20.878;2022-12-18T01:50:43;41.30;;;12.20;;
50681;SDS011;36779;52.168;20.878;2022-12-18T01:53:16;29.70;;;8.90;;
50681;SDS011;36779;52.168;20.878;2022-12-18T01:55:51;23.00;;;7.70;;
50681;SDS011;36779;52.168;20.878;2022-12-18T01:58:27;26.10;;;8.20;;
50681;SDS011;36779;52.168;20.878;2022-12-18T02:01:00;9.60;;;3.30;;
50681;SDS011;36779;52.168;20.878;2022-12-18T02:03:32;26.40;;;8.00;;
50681;SDS011;36779;52.168;20.878;2022-12-18T02:06:04;32.80;;;9.80;;
50681;SDS011;36779;52.168;20.878;2022-12-18T02:08:50;25.60;;;9.30;;
50681;SDS011;36779;52.168;20.878;2022-12-18T02:11:31;15.80;;;5.60;;
50681;SDS011;36779;52.168;20.878;2022-12-18T02:14:11;15.90;;;4.70;;
50681;SDS011;36779;52.168;20.878;2022-12-18T02:16:52;17.80;;;5.60;;
50681;SDS011;36779;52.168;20.878;2022-12-18T02:24:51;33.50;;;9.50;;
50681;SDS011;36779;52.168;20.878;2022-12-18T02:27:28;26.80;;;6.10;;
50681;SDS011;36779;52.168;20.878;2022-12-18T02:29:59;29.30;;;8.10;;
50681;SDS011;36779;52.168;20.878;2022-12-18T02:32:33;19.30;;;6.30;;
50681;SDS011;36779;52.168;20.878;2022-12-18T02:35:07;30.50;;;8.50;;
50681;SDS011;36779;52.168;20.878;2022-12-18T02:37:42;37.20;;;11.30;;
50681;SDS011;36779;52.168;20.878;2022-12-18T02:40:14;23.10;;;8.10;;
50681;SDS011;36779;52.168;20.878;2022-12-18T02:42:47;22.10;;;6.30;;
50681;SDS011;36779;52.168;20.878;2022-12-18T02:45:17;27.10;;;8.30;;
50681;SDS011;36779;52.168;20.878;2022-12-18T02:47:47;32.60;;;7.80;;
50681;SDS011;36779;52.168;20.878;2022-12-18T02:50:22;27.40;;;8.40;;
50681;SDS011;36779;52.168;20.878;2022-12-18T02:53:01;37.30;;;9.80;;
50681;SDS011;36779;52.168;20.878;2022-12-18T02:55:43;25.10;;;6.10;;
50681;SDS011;36779;52.168;20.878;2022-12-18T02:58:28;32.70;;;9.80;;
50681;SDS011;36779;52.168;20.878;2022-12-18T03:01:08;36.90;;;10.30;;
50681;SDS011;36779;52.168;20.878;2022-12-18T03:03:42;24.80;;;7.00;;
50681;SDS011;36779;52.168;20.878;2022-12-18T03:06:18;31.50;;;7.90;;
50681;SDS011;36779;52.168;20.878;2022-12-18T03:08:54;24.90;;;6.80;;
50681;SDS011;36779;52.168;20.878;2022-12-18T03:11:28;34.10;;;9.90;;
50681;SDS011;36779;52.168;20.878;2022-12-18T03:14:20;21.50;;;6.60;;
50681;SDS011;36779;52.168;20.878;2022-12-18T03:16:52;27.20;;;8.60;;
50681;SDS011;36779;52.168;20.878;2022-12-18T03:19:28;25.00;;;7.90;;
50681;SDS011;36779;52.168;20.878;2022-12-18T03:22:00;37.60;;;9.70;;
50681;SDS011;36779;52.168;20.878;2022-12-18T03:24:40;27.80;;;7.60;;
50681;SDS011;36779;52.168;20.878;2022-12-18T03:27:12;35.80;;;8.80;;
50681;SDS011;36779;52.168;20.878;2022-12-18T03:29:45;35.20;;;10.20;;
50681;SDS011;36779;52.168;20.878;2022-12-18T03:32:23;18.30;;;5.80;;
50681;SDS011;36779;52.168;20.878;2022-12-18T03:35:00;24.70;;;7.40;;
50681;SDS011;36779;52.168;20.878;2022-12-18T03:40:05;26.10;;;7.80;;
50681;SDS011;36779;52.168;20.878;2022-12-18T03:42:39;26.60;;;5.40;;
50681;SDS011;36779;52.168;20.878;2022-12-18T03:45:16;21.10;;;6.00;;
50681;SDS011;36779;52.168;20.878;2022-12-18T03:47:55;15.80;;;5.50;;
50681;SDS011;36779;52.168;20.878;2022-12-18T03:50:37;12.80;;;3.90;;
50681;SDS011;36779;52.168;20.878;2022-12-18T03:53:16;26.90;;;6.90;;
50681;SDS011;36779;52.168;20.878;2022-12-18T03:55:52;24.60;;;8.10;;
50681;SDS011;36779;52.168;20.878;2022-12-18T03:58:26;17.60;;;5.70;;
50681;SDS011;36779;52.168;20.878;2022-12-18T04:01:12;41.10;;;11.00;;
50681;SDS011;36779;52.168;20.878;2022-12-18T04:03:46;31.70;;;7.90;;
50681;SDS011;36779;52.168;20.878;2022-12-18T04:06:19;13.80;;;4.40;;
50681;SDS011;36779;52.168;20.878;2022-12-18T04:08:48;29.90;;;9.60;;
50681;SDS011;36779;52.168;20.878;2022-12-18T04:11:20;20.40;;;5.80;;
50681;SDS011;36779;52.168;20.878;2022-12-18T04:13:49;17.10;;;6.00;;
50681;SDS011;36779;52.168;20.878;2022-12-18T04:16:22;28.90;;;8.80;;
50681;SDS011;36779;52.168;20.878;2022-12-18T04:18:54;26.70;;;7.60;;
50681;SDS011;36779;52.168;20.878;2022-12-18T04:21:24;32.00;;;9.10;;
50681;SDS011;36779;52.168;20.878;2022-12-18T04:23:53;15.50;;;5.00;;
50681;SDS011;36779;52.168;20.878;2022-12-18T04:26:23;18.00;;;5.60;;
50681;SDS011;36779;52.168;20.878;2022-12-18T04:29:11;20.10;;;6.90;;
50681;SDS011;36779;52.168;20.878;2022-12-18T04:31:40;26.80;;;6.70;;
50681;SDS011;36779;52.168;20.878;2022-12-18T04:34:09;6.20;;;2.50;;
50681;SDS011;36779;52.168;20.878;2022-12-18T04:36:44;34.20;;;8.70;;
50681;SDS011;36779;52.168;20.878;2022-12-18T04:39:14;14.80;;;4.60;;
50681;SDS011;36779;52.168;20.878;2022-12-18T04:41:43;13.90;;;4.40;;
50681;SDS011;36779;52.168;20.878;2022-12-18T04:44:16;27.60;;;8.90;;
50681;SDS011;36779;52.168;20.878;2022-12-18T04:46:45;36.00;;;8.30;;
50681;SDS011;36779;52.168;20.878;2022-12-18T04:49:25;30.50;;;8.40;;
50681;SDS011;36779;52.168;20.878;2022-12-18T04:51:54;37.10;;;8.10;;
50681;SDS011;36779;52.168;20.878;2022-12-18T04:54:24;22.70;;;6.40;;
50681;SDS011;36779;52.168;20.878;2022-12-18T04:56:56;27.30;;;7.30;;
50681;SDS011;36779;52.168;20.878;2022-12-18T04:59:28;31.70;;;8.30;;
50681;SDS011;36779;52.168;20.878;2022-12-18T05:02:05;30.20;;;8.80;;
50681;SDS011;36779;52.168;20.878;2022-12-18T05:04:37;40.60;;;11.80;;
50681;SDS011;36779;52.168;20.878;2022-12-18T05:07:06;52.40;;;12.10;;
50681;SDS011;36779;52.168;20.878;2022-12-18T05:09:35;42.20;;;11.90;;
50681;SDS011;36779;52.168;20.878;2022-12-18T05:12:04;35.40;;;10.80;;
50681;SDS011;36779;52.168;20.878;2022-12-18T05:14:35;33.90;;;10.90;;
50681;SDS011;36779;52.168;20.878;2022-12-18T05:17:04;29.30;;;10.10;;
50681;SDS011;36779;52.168;20.878;2022-12-18T05:19:32;38.70;;;11.10;;
50681;SDS011;36779;52.168;20.878;2022-12-18T05:22:04;37.40;;;11.10;;
50681;SDS011;36779;52.168;20.878;2022-12-18T05:24:37;27.60;;;8.20;;
50681;SDS011;36779;52.168;20.878;2022-12-18T05:27:06;21.20;;;6.40;;
50681;SDS011;36779;52.168;20.878;2022-12-18T05:29:35;20.60;;;6.50;;
50681;SDS011;36779;52.168;20.878;2022-12-18T05:32:04;21.90;;;7.50;;
50681;SDS011;36779;52.168;20.878;2022-12-18T05:34:33;20.70;;;7.60;;
50681;SDS011;36779;52.168;20.878;2022-12-18T05:37:01;28.50;;;9.40;;
50681;SDS011;36779;52.168;20.878;2022-12-18T05:39:31;15.50;;;5.30;;
50681;SDS011;36779;52.168;20.878;2022-12-18T05:42:00;17.60;;;5.20;;
50681;SDS011;36779;52.168;20.878;2022-12-18T05:44:28;27.60;;;9.00;;
50681;SDS011;36779;52.168;20.878;2022-12-18T05:46:59;45.30;;;12.90;;
50681;SDS011;36779;52.168;20.878;2022-12-18T05:49:29;50.20;;;13.20;;
50681;SDS011;36779;52.168;20.878;2022-12-18T05:51:58;44.40;;;12.20;;
50681;SDS011;36779;52.168;20.878;2022-12-18T05:54:27;44.40;;;13.00;;
50681;SDS011;36779;52.168;20.878;2022-12-18T05:56:56;33.10;;;8.60;;
50681;SDS011;36779;52.168;20.878;2022-12-18T05:59:26;34.90;;;9.80;;
50681;SDS011;36779;52.168;20.878;2022-12-18T06:01:54;30.20;;;10.10;;
50681;SDS011;36779;52.168;20.878;2022-12-18T06:04:24;29.80;;;8.20;;
50681;SDS011;36779;52.168;20.878;2022-12-18T06:06:55;14.00;;;5.50;;
50681;SDS011;36779;52.168;20.878;2022-12-18T06:09:24;27.20;;;8.10;;
50681;SDS011;36779;52.168;20.878;2022-12-18T06:11:53;14.30;;;5.60;;
50681;SDS011;36779;52.168;20.878;2022-12-18T06:14:22;19.50;;;6.10;;
50681;SDS011;36779;52.168;20.878;2022-12-18T06:16:53;22.60;;;5.40;;
50681;SDS011;36779;52.168;20.878;2022-12-18T06:19:22;21.80;;;6.00;;
50681;SDS011;36779;52.168;20.878;2022-12-18T06:21:54;28.40;;;10.20;;
50681;SDS011;36779;52.168;20.878;2022-12-18T06:24:28;38.10;;;9.00;;
50681;SDS011;36779;52.168;20.878;2022-12-18T06:26:58;47.80;;;11.80;;
50681;SDS011;36779;52.168;20.878;2022-12-18T06:29:29;36.00;;;10.70;;
50681;SDS011;36779;52.168;20.878;2022-12-18T06:32:05;39.60;;;11.30;;
50681;SDS011;36779;52.168;20.878;2022-12-18T06:34:36;33.00;;;8.70;;
50681;SDS011;36779;52.168;20.878;2022-12-18T06:37:06;31.80;;;10.40;;
50681;SDS011;36779;52.168;20.878;2022-12-18T06:39:35;16.60;;;4.60;;
50681;SDS011;36779;52.168;20.878;2022-12-18T06:42:04;17.90;;;6.20;;
50681;SDS011;36779;52.168;20.878;2022-12-18T06:44:33;20.90;;;6.10;;
50681;SDS011;36779;52.168;20.878;2022-12-18T06:47:02;26.40;;;8.10;;
50681;SDS011;36779;52.168;20.878;2022-12-18T06:49:31;27.70;;;9.00;;
50681;SDS011;36779;52.168;20.878;2022-12-18T06:52:01;40.70;;;11.00;;
50681;SDS011;36779;52.168;20.878;2022-12-18T06:54:32;7.50;;;2.60;;
50681;SDS011;36779;52.168;20.878;2022-12-18T06:57:01;11.10;;;4.30;;
50681;SDS011;36779;52.168;20.878;2022-12-18T06:59:30;41.10;;;10.30;;
50681;SDS011;36779;52.168;20.878;2022-12-18T07:01:59;29.60;;;8.20;;
50681;SDS011;36779;52.168;20.878;2022-12-18T07:04:31;40.80;;;10.80;;
50681;SDS011;36779;52.168;20.878;2022-12-18T07:07:00;33.10;;;10.90;;
50681;SDS011;36779;52.168;20.878;2022-12-18T07:09:31;37.40;;;9.60;;
50681;SDS011;36779;52.168;20.878;2022-12-18T07:12:00;33.10;;;9.00;;
50681;SDS011;36779;52.168;20.878;2022-12-18T07:14:34;43.70;;;11.50;;
50681;SDS011;36779;52.168;20.878;2022-12-18T07:17:03;19.40;;;6.00;;
50681;SDS011;36779;52.168;20.878;2022-12-18T07:19:33;32.50;;;10.20;;
50681;SDS011;36779;52.168;20.878;2022-12-18T07:22:03;30.10;;;8.40;;
50681;SDS011;36779;52.168;20.878;2022-12-18T07:24:34;25.50;;;7.30;;
50681;SDS011;36779;52.168;20.878;2022-12-18T07:27:03;24.00;;;8.70;;
50681;SDS011;36779;52.168;20.878;2022-12-18T07:29:34;22.90;;;7.10;;
50681;SDS011;36779;52.168;20.878;2022-12-18T07:32:03;41.20;;;9.70;;
50681;SDS011;36779;52.168;20.878;2022-12-18T07:34:32;43.80;;;12.50;;
50681;SDS011;36779;52.168;20.878;2022-12-18T07:37:04;55.60;;;12.80;;
50681;SDS011;36779;52.168;20.878;2022-12-18T07:39:33;43.30;;;12.50;;
50681;SDS011;36779;52.168;20.878;2022-12-18T07:42:08;48.40;;;12.00;;
50681;SDS011;36779;52.168;20.878;2022-12-18T07:44:57;33.40;;;9.20;;
50681;SDS011;36779;52.168;20.878;2022-12-18T07:47:26;43.00;;;11.40;;
50681;SDS011;36779;52.168;20.878;2022-12-18T07:49:56;23.50;;;5.70;;
50681;SDS011;36779;52.168;20.878;2022-12-18T07:52:26;34.20;;;9.00;;
50681;SDS011;36779;52.168;20.878;2022-12-18T07:54:54;33.90;;;10.50;;
50681;SDS011;36779;52.168;20.878;2022-12-18T07:57:23;46.10;;;12.40;;
50681;SDS011;36779;52.168;20.878;2022-12-18T08:00:13;30.30;;;9.00;;
50681;SDS011;36779;52.168;20.878;2022-12-18T08:02:43;43.80;;;11.80;;
50681;SDS011;36779;52.168;20.878;2022-12-18T08:05:12;25.70;;;8.00;;
50681;SDS011;36779;52.168;20.878;2022-12-18T08:07:41;38.80;;;12.20;;
50681;SDS011;36779;52.168;20.878;2022-12-18T08:10:12;44.80;;;13.00;;
50681;SDS011;36779;52.168;20.878;2022-12-18T08:12:41;66.50;;;16.00;;
50681;SDS011;36779;52.168;20.878;2022-12-18T08:15:11;60.00;;;15.70;;
50681;SDS011;36779;52.168;20.878;2022-12-18T08:17:41;52.10;;;14.90;;
50681;SDS011;36779;52.168;20.878;2022-12-18T08:20:11;42.50;;;13.50;;
50681;SDS011;36779;52.168;20.878;2022-12-18T08:22:41;55.10;;;14.90;;
50681;SDS011;36779;52.168;20.878;2022-12-18T08:25:13;46.60;;;15.90;;
50681;SDS011;36779;52.168;20.878;2022-12-18T08:27:43;60.00;;;16.20;;
50681;SDS011;36779;52.168;20.878;2022-12-18T08:30:13;56.10;;;17.10;;
50681;SDS011;36779;52.168;20.878;2022-12-18T08:32:42;45.50;;;13.20;;
50681;SDS011;36779;52.168;20.878;2022-12-18T08:35:11;49.20;;;15.00;;
50681;SDS011;36779;52.168;20.878;2022-12-18T08:37:46;45.70;;;14.30;;
50681;SDS011;36779;52.168;20.878;2022-12-18T08:40:17;44.90;;;13.80;;
50681;SDS011;36779;52.168;20.878;2022-12-18T08:42:46;55.00;;;16.90;;
50681;SDS011;36779;52.168;20.878;2022-12-18T08:45:34;64.70;;;18.60;;
50681;SDS011;36779;52.168;20.878;2022-12-18T08:48:13;47.10;;;12.80;;
50681;SDS011;36779;52.168;20.878;2022-12-18T08:50:54;48.70;;;15.40;;
50681;SDS011;36779;52.168;20.878;2022-12-18T08:53:24;42.40;;;12.60;;
50681;SDS011;36779;52.168;20.878;2022-12-18T08:55:59;42.40;;;15.30;;
50681;SDS011;36779;52.168;20.878;2022-12-18T08:58:30;58.10;;;15.80;;
50681;SDS011;36779;52.168;20.878;2022-12-18T09:01:03;58.10;;;18.40;;
50681;SDS011;36779;52.168;20.878;2022-12-18T09:03:36;48.80;;;15.30;;
50681;SDS011;36779;52.168;20.878;2022-12-18T09:06:13;39.20;;;13.20;;
50681;SDS011;36779;52.168;20.878;2022-12-18T09:08:43;47.00;;;14.10;;
50681;SDS011;36779;52.168;20.878;2022-12-18T09:11:22;46.00;;;13.50;;
50681;SDS011;36779;52.168;20.878;2022-12-18T09:14:03;50.60;;;14.90;;
50681;SDS011;36779;52.168;20.878;2022-12-18T09:16:40;61.80;;;18.40;;
50681;SDS011;36779;52.168;20.878;2022-12-18T09:19:14;77.00;;;19.00;;
50681;SDS011;36779;52.168;20.878;2022-12-18T09:21:44;64.30;;;18.60;;
50681;SDS011;36779;52.168;20.878;2022-12-18T09:24:15;70.20;;;18.40;;
50681;SDS011;36779;52.168;20.878;2022-12-18T09:26:48;48.90;;;14.40;;
50681;SDS011;36779;52.168;20.878;2022-12-18T09:29:25;68.80;;;20.40;;
50681;SDS011;36779;52.168;20.878;2022-12-18T09:31:54;54.00;;;16.00;;
50681;SDS011;36779;52.168;20.878;2022-12-18T09:34:30;58.20;;;18.00;;
50681;SDS011;36779;52.168;20.878;2022-12-18T09:37:00;81.40;;;20.70;;
50681;SDS011;36779;52.168;20.878;2022-12-18T09:39:29;63.80;;;18.10;;
50681;SDS011;36779;52.168;20.878;2022-12-18T09:41:58;65.80;;;17.40;;
50681;SDS011;36779;52.168;20.878;2022-12-18T09:44:28;58.40;;;17.80;;
50681;SDS011;36779;52.168;20.878;2022-12-18T09:47:02;50.30;;;15.10;;
50681;SDS011;36779;52.168;20.878;2022-12-18T09:49:40;61.60;;;18.50;;
50681;SDS011;36779;52.168;20.878;2022-12-18T09:52:15;44.30;;;12.60;;
50681;SDS011;36779;52.168;20.878;2022-12-18T09:54:50;74.90;;;20.10;;
50681;SDS011;36779;52.168;20.878;2022-12-18T09:57:32;67.40;;;19.40;;
50681;SDS011;36779;52.168;20.878;2022-12-18T10:00:15;65.70;;;17.20;;
50681;SDS011;36779;52.168;20.878;2022-12-18T10:02:48;61.40;;;16.20;;
50681;SDS011;36779;52.168;20.878;2022-12-18T10:05:20;56.60;;;16.50;;
50681;SDS011;36779;52.168;20.878;2022-12-18T10:07:59;58.60;;;16.80;;
50681;SDS011;36779;52.168;20.878;2022-12-18T10:10:43;60.20;;;17.10;;
50681;SDS011;36779;52.168;20.878;2022-12-18T10:13:20;55.60;;;17.90;;
50681;SDS011;36779;52.168;20.878;2022-12-18T10:16:03;31.30;;;10.20;;
50681;SDS011;36779;52.168;20.878;2022-12-18T10:18:54;48.80;;;14.00;;
50681;SDS011;36779;52.168;20.878;2022-12-18T10:21:36;63.80;;;16.40;;
50681;SDS011;36779;52.168;20.878;2022-12-18T10:24:14;57.60;;;15.90;;
50681;SDS011;36779;52.168;20.878;2022-12-18T10:26:50;51.30;;;15.50;;
50681;SDS011;36779;52.168;20.878;2022-12-18T10:29:44;38.20;;;11.50;;
50681;SDS011;36779;52.168;20.878;2022-12-18T10:32:17;51.60;;;15.30;;
50681;SDS011;36779;52.168;20.878;2022-12-18T10:34:48;32.20;;;10.00;;
50681;SDS011;36779;52.168;20.878;2022-12-18T10:42:55;59.90;;;16.10;;
50681;SDS011;36779;52.168;20.878;2022-12-18T10:45:36;54.90;;;14.80;;
50681;SDS011;36779;52.168;20.878;2022-12-18T10:48:25;50.00;;;15.50;;
50681;SDS011;36779;52.168;20.878;2022-12-18T10:50:55;41.40;;;11.60;;
50681;SDS011;36779;52.168;20.878;2022-12-18T10:53:41;45.20;;;11.40;;
50681;SDS011;36779;52.168;20.878;2022-12-18T10:56:27;39.40;;;11.60;;
50681;SDS011;36779;52.168;20.878;2022-12-18T10:59:00;56.70;;;14.90;;
50681;SDS011;36779;52.168;20.878;2022-12-18T11:01:45;44.10;;;14.00;;
50681;SDS011;36779;52.168;20.878;2022-12-18T11:04:27;57.50;;;17.00;;
50681;SDS011;36779;52.168;20.878;2022-12-18T11:06:59;33.00;;;9.10;;
50681;SDS011;36779;52.168;20.878;2022-12-18T11:09:30;46.30;;;12.20;;
50681;SDS011;36779;52.168;20.878;2022-12-18T11:12:02;58.00;;;16.10;;
50681;SDS011;36779;52.168;20.878;2022-12-18T11:14:43;56.20;;;15.10;;
50681;SDS011;36779;52.168;20.878;2022-12-18T11:17:18;63.40;;;15.70;;
50681;SDS011;36779;52.168;20.878;2022-12-18T11:19:54;47.50;;;12.30;;
50681;SDS011;36779;52.168;20.878;2022-12-18T11:22:24;55.00;;;16.10;;
50681;SDS011;36779;52.168;20.878;2022-12-18T11:24:56;60.50;;;17.50;;
50681;SDS011;36779;52.168;20.878;2022-12-18T11:27:50;65.60;;;18.60;;
50681;SDS011;36779;52.168;20.878;2022-12-18T11:30:22;64.40;;;20.40;;
50681;SDS011;36779;52.168;20.878;2022-12-18T11:32:54;83.00;;;26.00;;
50681;SDS011;36779;52.168;20.878;2022-12-18T11:35:30;62.50;;;20.90;;
50681;SDS011;36779;52.168;20.878;2022-12-18T11:38:18;61.10;;;19.90;;
50681;SDS011;36779;52.168;20.878;2022-12-18T11:40:57;65.90;;;17.70;;
50681;SDS011;36779;52.168;20.878;2022-12-18T11:43:31;59.00;;;16.10;;
50681;SDS011;36779;52.168;20.878;2022-12-18T11:46:09;62.60;;;17.20;;
50681;SDS011;36779;52.168;20.878;2022-12-18T11:51:19;28.80;;;9.60;;
50681;SDS011;36779;52.168;20.878;2022-12-18T11:54:00;32.10;;;10.00;;
50681;SDS011;36779;52.168;20.878;2022-12-18T11:56:41;52.70;;;13.80;;
50681;SDS011;36779;52.168;20.878;2022-12-18T11:59:15;59.80;;;16.10;;
50681;SDS011;36779;52.168;20.878;2022-12-18T12:02:16;57.50;;;15.20;;
50681;SDS011;36779;52.168;20.878;2022-12-18T12:05:14;51.40;;;16.30;;
50681;SDS011;36779;52.168;20.878;2022-12-18T12:07:52;62.10;;;20.10;;
50681;SDS011;36779;52.168;20.878;2022-12-18T12:10:29;55.70;;;18.30;;
50681;SDS011;36779;52.168;20.878;2022-12-18T12:13:15;63.60;;;21.80;;
50681;SDS011;36779;52.168;20.878;2022-12-18T12:15:58;66.50;;;19.40;;
50681;SDS011;36779;52.168;20.878;2022-12-18T12:18:47;55.40;;;15.60;;
50681;SDS011;36779;52.168;20.878;2022-12-18T12:21:35;52.50;;;14.70;;
50681;SDS011;36779;52.168;20.878;2022-12-18T12:24:24;46.40;;;14.50;;
50681;SDS011;36779;52.168;20.878;2022-12-18T12:27:06;32.10;;;10.80;;
50681;SDS011;36779;52.168;20.878;2022-12-18T12:29:46;56.40;;;15.20;;
50681;SDS011;36779;52.168;20.878;2022-12-18T12:32:26;57.10;;;14.10;;
50681;SDS011;36779;52.168;20.878;2022-12-18T12:35:52;46.30;;;13.30;;
50681;SDS011;36779;52.168;20.878;2022-12-18T12:38:31;46.40;;;12.20;;
50681;SDS011;36779;52.168;20.878;2022-12-18T12:41:05;48.30;;;13.40;;
50681;SDS011;36779;52.168;20.878;2022-12-18T12:43:57;49.70;;;14.60;;
50681;SDS011;36779;52.168;20.878;2022-12-18T12:46:32;56.10;;;14.80;;
50681;SDS011;36779;52.168;20.878;2022-12-18T12:49:17;61.10;;;16.10;;
50681;SDS011;36779;52.168;20.878;2022-12-18T12:51:52;53.70;;;14.30;;
50681;SDS011;36779;52.168;20.878;2022-12-18T12:54:26;66.10;;;16.80;;
50681;SDS011;36779;52.168;20.878;2022-12-18T12:56:59;62.70;;;17.70;;
50681;SDS011;36779;52.168;20.878;2022-12-18T12:59:45;50.20;;;15.00;;
50681;SDS011;36779;52.168;20.878;2022-12-18T13:02:21;43.50;;;14.10;;
50681;SDS011;36779;52.168;20.878;2022-12-18T13:04:57;62.30;;;18.50;;
50681;SDS011;36779;52.168;20.878;2022-12-18T13:07:35;61.50;;;18.80;;
50681;SDS011;36779;52.168;20.878;2022-12-18T13:10:26;60.60;;;18.40;;
50681;SDS011;36779;52.168;20.878;2022-12-18T13:13:01;52.30;;;15.80;;
50681;SDS011;36779;52.168;20.878;2022-12-18T13:15:36;51.10;;;15.60;;
50681;SDS011;36779;52.168;20.878;2022-12-18T13:18:19;69.80;;;21.20;;
50681;SDS011;36779;52.168;20.878;2022-12-18T13:20:50;83.10;;;25.30;;
50681;SDS011;36779;52.168;20.878;2022-12-18T13:23:32;300.90;;;79.00;;
50681;SDS011;36779;52.168;20.878;2022-12-18T13:28:59;137.40;;;40.30;;
50681;SDS011;36779;52.168;20.878;2022-12-18T13:34:49;302.60;;;78.70;;
50681;SDS011;36779;52.168;20.878;2022-12-18T13:37:56;100.00;;;27.80;;
50681;SDS011;36779;52.168;20.878;2022-12-18T13:43:35;75.00;;;22.50;;
50681;SDS011;36779;52.168;20.878;2022-12-18T13:46:23;59.10;;;19.80;;
50681;SDS011;36779;52.168;20.878;2022-12-18T13:48:56;67.90;;;20.10;;
50681;SDS011;36779;52.168;20.878;2022-12-18T13:51:28;85.80;;;26.70;;
50681;SDS011;36779;52.168;20.878;2022-12-18T13:54:00;73.20;;;22.60;;
50681;SDS011;36779;52.168;20.878;2022-12-18T13:56:30;75.90;;;23.00;;
50681;SDS011;36779;52.168;20.878;2022-12-18T13:59:11;70.10;;;19.80;;
50681;SDS011;36779;52.168;20.878;2022-12-18T14:01:48;52.20;;;15.00;;
50681;SDS011;36779;52.168;20.878;2022-12-18T14:04:23;51.90;;;16.40;;
50681;SDS011;36779;52.168;20.878;2022-12-18T14:06:57;54.60;;;15.30;;
50681;SDS011;36779;52.168;20.878;2022-12-18T14:09:35;47.00;;;15.30;;
50681;SDS011;36779;52.168;20.878;2022-12-18T14:12:20;52.70;;;17.20;;
50681;SDS011;36779;52.168;20.878;2022-12-18T14:15:23;56.70;;;17.00;;
50681;SDS011;36779;52.168;20.878;2022-12-18T14:18:02;55.20;;;16.80;;
50681;SDS011;36779;52.168;20.878;2022-12-18T14:20:48;62.30;;;18.10;;
50681;SDS011;36779;52.168;20.878;2022-12-18T14:23:27;54.00;;;15.90;;
50681;SDS011;36779;52.168;20.878;2022-12-18T14:25:57;52.20;;;15.80;;
50681;SDS011;36779;52.168;20.878;2022-12-18T14:28:32;55.90;;;16.30;;
50681;SDS011;36779;52.168;20.878;2022-12-18T14:31:17;56.40;;;15.10;;
50681;SDS011;36779;52.168;20.878;2022-12-18T14:33:51;61.20;;;15.90;;
50681;SDS011;36779;52.168;20.878;2022-12-18T14:36:22;57.30;;;16.60;;
50681;SDS011;36779;52.168;20.878;2022-12-18T14:38:56;65.70;;;17.70;;
50681;SDS011;36779;52.168;20.878;2022-12-18T14:41:27;54.00;;;16.40;;
50681;SDS011;36779;52.168;20.878;2022-12-18T14:44:04;63.40;;;17.20;;
50681;SDS011;36779;52.168;20.878;2022-12-18T14:46:46;54.70;;;16.70;;
50681;SDS011;36779;52.168;20.878;2022-12-18T14:49:19;49.70;;;17.40;;
50681;SDS011;36779;52.168;20.878;2022-12-18T14:51:53;59.90;;;19.10;;
50681;SDS011;36779;52.168;20.878;2022-12-18T14:54:24;63.00;;;18.20;;
50681;SDS011;36779;52.168;20.878;2022-12-18T14:59:51;59.10;;;17.30;;
50681;SDS011;36779;52.168;20.878;2022-12-18T15:02:24;50.20;;;16.30;;
50681;SDS011;36779;52.168;20.878;2022-12-18T15:05:03;54.90;;;15.60;;
50681;SDS011;36779;52.168;20.878;2022-12-18T15:07:40;47.60;;;15.20;;
50681;SDS011;36779;52.168;20.878;2022-12-18T15:10:14;56.40;;;17.30;;
50681;SDS011;36779;52.168;20.878;2022-12-18T15:12:45;73.70;;;20.20;;
50681;SDS011;36779;52.168;20.878;2022-12-18T15:18:15;54.70;;;15.10;;
50681;SDS011;36779;52.168;20.878;2022-12-18T15:20:45;52.30;;;15.10;;
50681;SDS011;36779;52.168;20.878;2022-12-18T15:23:20;323.20;;;71.30;;
50681;SDS011;36779;52.168;20.878;2022-12-18T15:25:55;338.40;;;74.60;;